Time;durP1;ratioP1;P1;durP2;ratioP2;P2;SDS_P1;SDS_P2;PMS_P1;PMS_P2;Temp;Humidity;BMP_temperature;BMP_pressure;BME280_temperature;BME280_humidity;BME280_pressure;Samples;Min_cycle;Max_cycle;Signal;HPM_P1;HPM_P2
2021/06/28 00:01:29;;;;;;;;;;;;;;;26.02;58.04;98875.66;3380413;29;20025;-69
2021/06/28 00:03:11;;;;;;;;;;;;;;;26.01;57.72;98865.81;3375535;29;20357;-70
2021/06/28 00:04:52;;;;;;;;;;;;;;;26.00;57.69;98872.41;3378213;29;19927;-69
2021/06/28 00:06:33;;;;;;;;;;;;;;;25.99;57.52;98867.25;3377568;29;19923;-69
2021/06/28 00:08:14;;;;;;;;;;;;;;;25.98;57.91;98863.72;3377594;29;20382;-70
2021/06/28 00:09:54;;;;;;;;;;;;;;;25.98;57.77;98861.00;3377851;29;19929;-69
2021/06/28 00:11:43;;;;;;;;;;;;;;;25.96;57.61;98863.25;3371433;29;19928;-70
2021/06/28 00:13:24;;;;;;;;;;;;;;;25.95;57.57;98863.56;3375409;29;19924;-70
2021/06/28 00:15:08;;;;;;;;;;;;;;;25.94;57.65;98865.47;3377306;29;19924;-71
2021/06/28 00:16:48;;;;;;;;;;;;;;;25.94;57.97;98868.19;3374345;29;20018;-71
2021/06/28 00:18:29;;;;;;;;;;;;;;;25.93;58.02;98869.34;3374675;29;20019;-71
2021/06/28 00:20:11;;;;;;;;;;;;;;;25.94;58.02;98868.19;3376270;29;19959;-69
2021/06/28 00:21:51;;;;;;;;;;;;;;;25.96;58.33;98870.63;3377313;29;19927;-70
2021/06/28 00:23:32;;;;;;;;;;;;;;;25.99;58.46;98880.91;3378488;29;20386;-69
2021/06/28 00:25:14;;;;;;;;;;;;;;;26.02;58.17;98877.53;3377366;29;19923;-69
2021/06/28 00:26:55;;;;;;;;;;;;;;;26.05;58.32;98880.47;3376438;29;20382;-69
2021/06/28 00:28:36;;;;;;;;;;;;;;;26.09;58.06;98881.41;3378042;29;19971;-69
2021/06/28 00:30:17;;;;;;;;;;;;;;;26.11;58.32;98876.44;3377629;29;20338;-69
2021/06/28 00:31:58;;;;;;;;;;;;;;;26.14;58.09;98885.13;3377213;29;19930;-69
2021/06/28 00:33:38;;;;;;;;;;;;;;;26.16;58.01;98880.97;3376058;29;20320;-69
2021/06/28 00:35:20;;;;;;;;;;;;;;;26.18;58.15;98891.59;3373924;29;20001;-69
2021/06/28 00:37:03;;;;;;;;;;;;;;;26.19;58.05;98883.06;3376860;29;19923;-69
2021/06/28 00:38:43;;;;;;;;;;;;;;;26.22;57.88;98884.34;3382589;29;19993;-69
2021/06/28 00:40:24;;;;;;;;;;;;;;;26.23;57.92;98889.50;3390459;29;19923;-69
2021/06/28 00:42:05;;;;;;;;;;;;;;;26.26;57.82;98896.25;3390292;29;19979;-69
2021/06/28 00:43:45;;;;;;;;;;;;;;;26.27;57.98;98909.59;3390291;29;19994;-69
2021/06/28 00:45:30;;;;;;;;;;;;;;;26.25;57.96;98920.03;3402234;29;19929;-69
2021/06/28 00:47:11;;;;;;;;;;;;;;;26.22;57.94;98928.84;3392250;29;19923;-69
2021/06/28 00:48:51;;;;;;;;;;;;;;;26.19;57.98;98928.69;3385984;29;19930;-69
2021/06/28 00:50:34;;;;;;;;;;;;;;;26.14;57.92;98934.31;3377316;29;19974;-69
2021/06/28 00:52:15;;;;;;;;;;;;;;;26.13;58.42;98921.78;3377034;29;19939;-69
2021/06/28 00:53:56;;;;;;;;;;;;;;;26.14;58.32;98918.72;3377080;29;19929;-69
2021/06/28 00:55:37;;;;;;;;;;;;;;;26.17;58.28;98939.13;3376903;29;19951;-69
2021/06/28 00:57:18;;;;;;;;;;;;;;;26.15;58.03;98939.47;3377087;29;20367;-69
2021/06/28 00:58:58;;;;;;;;;;;;;;;26.14;58.80;98932.38;3378965;29;19978;-69
2021/06/28 01:00:39;;;;;;;;;;;;;;;26.14;58.18;98937.03;3386284;29;19923;-69
2021/06/28 01:02:20;;;;;;;;;;;;;;;26.15;58.27;98914.06;3389828;29;19923;-69
2021/06/28 01:04:00;;;;;;;;;;;;;;;26.16;58.08;98908.28;3389843;29;20396;-69
2021/06/28 01:05:42;;;;;;;;;;;;;;;26.19;58.04;98909.56;3390043;29;19923;-69
2021/06/28 01:07:22;;;;;;;;;;;;;;;26.22;58.00;98917.13;3390110;29;19923;-70
2021/06/28 01:09:03;;;;;;;;;;;;;;;26.24;58.18;98921.16;3385653;29;20383;-69
2021/06/28 01:10:44;;;;;;;;;;;;;;;26.25;57.82;98927.41;3375881;29;19923;-69
2021/06/28 01:12:24;;;;;;;;;;;;;;;26.25;58.00;98930.16;3376873;29;19946;-68
2021/06/28 01:14:05;;;;;;;;;;;;;;;26.24;57.95;98923.88;3378339;29;19923;-70
2021/06/28 01:15:46;;;;;;;;;;;;;;;26.24;58.31;98923.88;3376949;29;20288;-68
2021/06/28 01:17:27;;;;;;;;;;;;;;;26.24;58.09;98912.97;3375946;29;19927;-68
2021/06/28 01:19:08;;;;;;;;;;;;;;;26.26;58.15;98918.13;3373514;29;20446;-68
2021/06/28 01:20:48;;;;;;;;;;;;;;;26.25;58.28;98916.50;3387619;29;19930;-69
2021/06/28 01:22:31;;;;;;;;;;;;;;;26.26;58.30;98907.19;3379134;29;19930;-69
2021/06/28 01:24:12;;;;;;;;;;;;;;;26.27;58.03;98904.13;3376838;29;19950;-69
2021/06/28 01:25:54;;;;;;;;;;;;;;;26.27;58.08;98898.66;3376873;29;19923;-68
2021/06/28 01:27:35;;;;;;;;;;;;;;;26.30;58.26;98886.28;3376626;29;19923;-68
2021/06/28 01:29:16;;;;;;;;;;;;;;;26.32;58.10;98884.06;3378749;29;19923;-69
2021/06/28 01:30:58;;;;;;;;;;;;;;;26.33;58.16;98885.66;3389566;29;19922;-69
2021/06/28 01:32:41;;;;;;;;;;;;;;;26.35;57.97;98886.13;3389746;29;20373;-70
2021/06/28 01:34:22;;;;;;;;;;;;;;;26.38;57.91;98892.91;3389558;29;19923;-69
2021/06/28 01:36:02;;;;;;;;;;;;;;;26.39;57.99;98894.53;3389477;29;20067;-69
2021/06/28 01:37:43;;;;;;;;;;;;;;;26.39;58.20;98873.47;3389311;29;20018;-69
2021/06/28 01:39:24;;;;;;;;;;;;;;;26.40;57.99;98875.06;3386892;29;19927;-69
2021/06/28 01:41:04;;;;;;;;;;;;;;;26.39;58.28;98856.28;3376479;29;19930;-70
2021/06/28 01:42:46;;;;;;;;;;;;;;;26.39;58.36;98846.13;3375577;29;19976;-70
2021/06/28 01:44:26;;;;;;;;;;;;;;;26.41;57.84;98829.41;3375953;29;20005;-69
2021/06/28 01:46:07;;;;;;;;;;;;;;;26.41;57.87;98824.78;3376035;29;19923;-69
2021/06/28 01:47:50;;;;;;;;;;;;;;;26.41;57.87;98822.03;3375523;29;19923;-69
2021/06/28 01:49:33;;;;;;;;;;;;;;;26.42;58.11;98822.84;3379085;29;19927;-69
2021/06/28 01:51:13;;;;;;;;;;;;;;;26.42;57.88;98826.38;3388402;29;19930;-69
2021/06/28 01:52:54;;;;;;;;;;;;;;;26.44;58.13;98821.38;3389452;29;19929;-69
2021/06/28 01:54:35;;;;;;;;;;;;;;;26.44;57.83;98817.84;3389225;29;19919;-69
2021/06/28 01:56:15;;;;;;;;;;;;;;;26.46;57.80;98830.06;3389412;29;19923;-69
2021/06/28 01:57:57;;;;;;;;;;;;;;;26.46;58.05;98835.53;3389371;29;19930;-69
2021/06/28 01:59:37;;;;;;;;;;;;;;;26.47;57.81;98839.88;3387471;29;20022;-69
2021/06/28 02:01:19;;;;;;;;;;;;;;;26.46;57.81;98837.44;3388786;29;19923;-68
2021/06/28 02:03:01;;;;;;;;;;;;;;;26.46;57.95;98835.53;3388753;29;19915;-68
2021/06/28 02:04:42;;;;;;;;;;;;;;;26.49;57.80;98823.16;3389405;29;19951;-69
2021/06/28 02:06:22;;;;;;;;;;;;;;;26.50;57.57;98811.91;3389408;29;19915;-68
2021/06/28 02:08:07;;;;;;;;;;;;;;;26.51;57.49;98805.31;3389085;29;20506;-69
2021/06/28 02:09:47;;;;;;;;;;;;;;;26.51;58.05;98799.84;3384204;29;19974;-69
2021/06/28 02:11:28;;;;;;;;;;;;;;;26.52;57.76;98801.47;3374856;29;19954;-69
2021/06/28 02:13:08;;;;;;;;;;;;;;;26.54;57.63;98801.97;3375991;29;20025;-71
2021/06/28 02:14:49;;;;;;;;;;;;;;;26.56;57.65;98798.09;3376154;29;20314;-70
2021/06/28 02:16:29;;;;;;;;;;;;;;;26.57;57.87;98795.06;3376027;29;19927;-71
2021/06/28 02:18:10;;;;;;;;;;;;;;;26.58;57.56;98782.19;3387938;29;19923;-71
2021/06/28 02:19:50;;;;;;;;;;;;;;;26.61;57.46;98776.06;3379693;29;20287;-71
2021/06/28 02:21:31;;;;;;;;;;;;;;;26.64;57.37;98769.94;3387852;29;19978;-71
2021/06/28 02:23:22;;;;;;;;;;;;;;;26.66;57.81;98770.44;3378440;29;20014;-69
2021/06/28 02:25:04;;;;;;;;;;;;;;;26.69;57.63;98772.50;3376468;29;20018;-70
2021/06/28 02:26:44;;;;;;;;;;;;;;;26.71;57.56;98770.25;3389210;29;19919;-70
2021/06/28 02:28:26;;;;;;;;;;;;;;;26.73;57.57;98770.75;3379651;29;19991;-70
2021/06/28 02:30:08;;;;;;;;;;;;;;;26.73;57.37;98763.34;3379759;29;19919;-70
2021/06/28 02:31:49;;;;;;;;;;;;;;;26.75;57.37;98758.38;3388927;29;19930;-70
2021/06/28 02:33:30;;;;;;;;;;;;;;;26.78;57.19;98747.91;3389785;29;19923;-71
2021/06/28 02:35:11;;;;;;;;;;;;;;;26.78;57.07;98748.72;3390430;29;19923;-69
2021/06/28 02:36:52;;;;;;;;;;;;;;;26.80;57.42;98745.63;3390058;29;20370;-69
2021/06/28 02:38:33;;;;;;;;;;;;;;;26.80;57.21;98746.47;3389248;29;19978;-69
2021/06/28 02:40:14;;;;;;;;;;;;;;;26.81;57.12;98753.53;3381415;29;19930;-69
2021/06/28 02:42:15;;;;;;;;;;;;;;;26.83;57.04;98755.94;3324216;29;19972;-71
2021/06/28 02:44:15;;;;;;;;;;;;;;;26.85;57.33;98757.22;3349654;29;19924;-70
2021/06/28 02:45:56;;;;;;;;;;;;;;;26.87;56.78;98752.22;3375851;29;20867;-70
2021/06/28 02:47:37;;;;;;;;;;;;;;;26.89;57.27;98757.38;3375874;29;19924;-71
2021/06/28 02:49:17;;;;;;;;;;;;;;;26.91;57.22;98758.66;3376005;29;20495;-71
2021/06/28 02:50:58;;;;;;;;;;;;;;;26.92;57.07;98754.78;3388097;29;19973;-71
2021/06/28 02:52:39;;;;;;;;;;;;;;;26.95;57.24;98753.31;3387880;29;20429;-68
2021/06/28 02:54:20;;;;;;;;;;;;;;;26.96;57.11;98749.47;3385188;29;20302;-71
2021/06/28 02:56:12;;;;;;;;;;;;;;;26.98;56.97;98747.22;3397249;29;20025;-70
2021/06/28 02:57:53;;;;;;;;;;;;;;;26.98;56.75;98737.06;3389836;29;19977;-70
2021/06/28 02:59:34;;;;;;;;;;;;;;;27.00;57.17;98733.19;3384325;29;20375;-71
2021/06/28 03:01:27;;;;;;;;;;;;;;;27.00;56.54;98734.00;3492386;27;2060753;-70
2021/06/28 03:03:22;;;;;;;;;;;;;;;27.00;56.60;98727.72;3508636;27;20559;-69
2021/06/28 03:05:17;;;;;;;;;;;;;;;26.97;56.58;98729.97;3536833;27;20046;-69
2021/06/28 03:07:12;;;;;;;;;;;;;;;27.01;57.02;98729.34;3522487;27;19962;-70
2021/06/28 03:09:07;;;;;;;;;;;;;;;27.04;56.98;98726.75;3493955;28;20422;-72
2021/06/28 03:11:04;;;;;;;;;;;;;;;27.08;56.75;98732.34;3522060;27;19959;-70
2021/06/28 03:12:59;;;;;;;;;;;;;;;27.12;56.65;98730.59;3494967;28;19963;-71
2021/06/28 03:14:53;;;;;;;;;;;;;;;27.07;56.33;98712.41;3508609;27;20351;-70
2021/06/28 03:16:47;;;;;;;;;;;;;;;27.17;56.41;98725.75;3464893;27;2054490;-68
2021/06/28 03:18:42;;;;;;;;;;;;;;;27.20;56.25;98727.03;3488495;27;2052627;-71
2021/06/28 03:20:37;;;;;;;;;;;;;;;27.23;56.14;98737.31;3508677;27;19959;-70
2021/06/28 03:22:29;;;;;;;;;;;;;;;27.25;56.36;98731.53;3492840;27;2064462;-68
2021/06/28 03:24:23;;;;;;;;;;;;;;;27.28;56.16;98728.13;3522755;27;20369;-68
2021/06/28 03:26:18;;;;;;;;;;;;;;;27.31;56.08;98722.00;3522875;27;19959;-70
2021/06/28 03:28:41;;;;;;;;;;;;;;;27.35;56.17;98717.47;3488161;27;2073544;-70
2021/06/28 03:30:37;;;;;;;;;;;;;;;27.37;56.10;98726.97;3494545;28;19960;-72
2021/06/28 03:32:29;;;;;;;;;;;;;;;27.39;56.00;98732.91;3492991;27;2058383;-70
2021/06/28 03:34:23;;;;;;;;;;;;;;;27.41;55.67;98716.94;3508863;27;19952;-71
2021/06/28 03:36:19;;;;;;;;;;;;;;;27.41;56.01;98719.69;3494726;28;19959;-70
2021/06/28 03:38:11;;;;;;;;;;;;;;;27.44;56.12;98715.47;3488043;27;2200324;-68
2021/06/28 03:40:05;;;;;;;;;;;;;;;27.48;56.07;98710.16;3532519;27;19973;-70
2021/06/28 03:41:58;;;;;;;;;;;;;;;27.52;55.80;98705.63;3493413;27;2046994;-71
2021/06/28 03:43:51;;;;;;;;;;;;;;;27.55;56.04;98689.34;3522875;27;19955;-74
2021/06/28 03:45:46;;;;;;;;;;;;;;;27.57;56.23;98695.31;3493358;27;2056406;-70
2021/06/28 03:47:41;;;;;;;;;;;;;;;27.59;55.65;98694.97;3564484;27;20381;-72
2021/06/28 03:49:35;;;;;;;;;;;;;;;27.58;55.77;98693.38;3522572;27;20429;-74
2021/06/28 03:51:30;;;;;;;;;;;;;;;27.57;56.21;98691.75;3494700;28;20376;-70
2021/06/28 03:53:25;;;;;;;;;;;;;;;27.56;56.29;98690.94;3494844;28;20366;-69
2021/06/28 03:55:18;;;;;;;;;;;;;;;27.55;56.45;98683.09;3492884;27;2057518;-69
2021/06/28 03:57:10;;;;;;;;;;;;;;;27.55;56.24;98666.66;3494820;27;2053349;-69
2021/06/28 03:59:02;;;;;;;;;;;;;;;27.56;56.49;98671.00;3486388;27;2073820;-71
2021/06/28 04:00:55;;;;;;;;;;;;;;;27.57;56.58;98656.97;3493338;27;2051261;-70
2021/06/28 04:02:49;;;;;;;;;;;;;;;27.59;56.38;98662.09;3522880;27;20377;-68
2021/06/28 04:04:48;;;;;;;;;;;;;;;27.58;56.30;98658.56;3522834;27;20377;-71
2021/06/28 04:06:42;;;;;;;;;;;;;;;27.59;56.20;98651.16;3508485;27;19972;-70
2021/06/28 04:08:38;;;;;;;;;;;;;;;27.60;56.20;98647.31;3494763;28;19960;-69
2021/06/28 04:10:33;;;;;;;;;;;;;;;27.60;56.61;98647.31;3522890;27;19974;-69
2021/06/28 04:12:28;;;;;;;;;;;;;;;27.59;56.59;98646.47;3494724;28;19955;-70
2021/06/28 04:14:21;;;;;;;;;;;;;;;27.58;56.28;98639.41;3493824;27;2043633;-70
2021/06/28 04:16:15;;;;;;;;;;;;;;;27.59;56.29;98645.69;3495045;28;19975;-71
2021/06/28 04:18:08;;;;;;;;;;;;;;;27.60;56.40;98631.66;3465217;27;2051426;-69
2021/06/28 04:20:02;;;;;;;;;;;;;;;27.66;56.24;98632.28;3494632;28;20422;-70
2021/06/28 04:21:55;;;;;;;;;;;;;;;27.71;56.00;98631.28;3493689;27;2043593;-70
2021/06/28 04:23:49;;;;;;;;;;;;;;;27.75;55.86;98635.75;3551136;27;20389;-71
2021/06/28 04:25:44;;;;;;;;;;;;;;;27.81;55.60;98636.38;3551335;27;19978;-69
2021/06/28 04:27:39;;;;;;;;;;;;;;;27.84;55.97;98636.50;3508573;27;19971;-70
2021/06/28 04:29:37;;;;;;;;;;;;;;;27.88;55.39;98641.28;3522517;27;19951;-71
2021/06/28 04:31:31;;;;;;;;;;;;;;;27.93;55.23;98638.34;3492666;27;2068978;-71
2021/06/28 04:33:27;;;;;;;;;;;;;;;27.93;55.41;98628.22;3494779;28;19948;-70
2021/06/28 04:35:20;;;;;;;;;;;;;;;27.91;55.29;98619.53;3465174;27;2056750;-70
2021/06/28 04:37:14;;;;;;;;;;;;;;;27.90;55.67;98623.41;3480751;28;19975;-69
2021/06/28 04:39:09;;;;;;;;;;;;;;;27.89;55.38;98630.03;3522990;27;19971;-69
2021/06/28 04:41:04;;;;;;;;;;;;;;;27.92;55.30;98620.34;3494760;28;20054;-72
2021/06/28 04:43:00;;;;;;;;;;;;;;;27.92;55.06;98612.13;3522623;27;20081;-70
2021/06/28 04:44:55;;;;;;;;;;;;;;;27.93;55.43;98610.97;3508842;27;19967;-71
2021/06/28 04:46:49;;;;;;;;;;;;;;;27.97;55.47;98614.66;3493289;27;2045385;-70
2021/06/28 04:48:44;;;;;;;;;;;;;;;28.00;55.27;98608.50;3522300;27;19962;-70
2021/06/28 04:50:39;;;;;;;;;;;;;;;28.05;55.02;98608.28;3522546;27;20418;-68
2021/06/28 04:52:34;;;;;;;;;;;;;;;28.10;55.25;98621.78;3494231;28;20400;-70
2021/06/28 04:54:29;;;;;;;;;;;;;;;28.16;54.87;98620.41;3522284;27;19962;-70
2021/06/28 04:56:24;;;;;;;;;;;;;;;28.22;54.91;98613.59;3522636;27;20402;-71
2021/06/28 04:58:17;;;;;;;;;;;;;;;28.32;54.70;98625.25;3491741;27;2076287;-72
2021/06/28 05:00:11;;;;;;;;;;;;;;;28.42;54.70;98638.53;3467138;27;2062338;-72
2021/06/28 05:02:06;;;;;;;;;;;;;;;28.52;54.59;98640.88;3479328;28;20047;-71
2021/06/28 05:03:59;;;;;;;;;;;;;;;28.63;54.25;98655.75;3443594;27;3046383;-71
2021/06/28 05:05:50;;;;;;;;;;;;;;;28.74;54.38;98656.13;3493046;27;2063395;-70
2021/06/28 05:07:45;;;;;;;;;;;;;;;28.80;54.33;98653.94;3508724;27;19959;-70
2021/06/28 05:09:37;;;;;;;;;;;;;;;28.84;54.05;98643.91;3484067;27;2051742;-71
2021/06/28 05:11:29;;;;;;;;;;;;;;;28.86;53.95;98636.94;3491644;27;2071297;-71
2021/06/28 05:13:21;;;;;;;;;;;;;;;28.91;54.21;98652.34;3490236;27;2047673;-71
2021/06/28 05:15:15;;;;;;;;;;;;;;;28.98;53.90;98674.53;3492571;27;2080647;-75
2021/06/28 05:17:10;;;;;;;;;;;;;;;29.05;53.80;98663.81;3509134;27;19964;-78
2021/06/28 05:19:08;;;;;;;;;;;;;;;29.08;53.69;98649.41;3523690;27;20026;-77
2021/06/28 05:20:59;;;;;;;;;;;;;;;29.10;53.39;98633.41;3492863;27;2075055;-77
2021/06/28 05:22:53;;;;;;;;;;;;;;;29.11;53.64;98626.78;3486972;27;2200722;-75
2021/06/28 05:24:46;;;;;;;;;;;;;;;29.13;53.75;98640.97;3478504;27;2102531;-78
2021/06/28 05:26:39;;;;;;;;;;;;;;;29.16;53.11;98652.41;3481256;27;2413059;-76
2021/06/28 05:28:31;;;;;;;;;;;;;;;29.18;53.45;98639.94;3494086;27;2063647;-77
2021/06/28 05:30:23;;;;;;;;;;;;;;;29.23;52.96;98638.91;3486670;27;2333774;-77
2021/06/28 05:32:15;;;;;;;;;;;;;;;29.29;52.99;98634.75;3493120;27;2045518;-75
2021/06/28 05:34:07;;;;;;;;;;;;;;;29.33;52.81;98639.22;3488596;27;2159558;-76
2021/06/28 05:35:59;;;;;;;;;;;;;;;29.38;52.68;98654.66;3464843;27;2169553;-76
2021/06/28 05:37:52;;;;;;;;;;;;;;;29.42;52.62;98655.56;3491780;27;2101425;-76
2021/06/28 05:39:45;;;;;;;;;;;;;;;29.46;52.92;98650.19;3468995;27;2477991;-74
2021/06/28 05:41:39;;;;;;;;;;;;;;;29.48;52.65;98639.66;3494390;28;19956;-76
2021/06/28 05:43:32;;;;;;;;;;;;;;;29.50;52.58;98629.91;3470491;27;2301824;-75
2021/06/28 05:45:24;;;;;;;;;;;;;;;29.54;52.34;98639.06;3488979;27;2053475;-75
2021/06/28 05:47:21;;;;;;;;;;;;;;;29.58;52.17;98630.94;3493188;27;2050440;-76
2021/06/28 05:49:13;;;;;;;;;;;;;;;29.62;52.04;98631.84;3485015;27;2155593;-76
2021/06/28 05:51:07;;;;;;;;;;;;;;;29.66;52.50;98634.72;3491955;27;2091777;-77
2021/06/28 05:53:01;;;;;;;;;;;;;;;29.69;51.91;98634.84;3477112;27;2105629;-75
2021/06/28 05:54:54;;;;;;;;;;;;;;;29.72;52.10;98639.63;3490760;27;2044053;-76
2021/06/28 05:56:47;;;;;;;;;;;;;;;29.75;51.96;98646.38;3483021;27;2066456;-76
2021/06/28 05:58:55;;;;;;;;;;;;;;;29.76;51.95;98642.47;3494298;28;19959;-76
2021/06/28 06:00:48;;;;;;;;;;;;;;;29.78;51.75;98651.16;3464339;27;2082496;-75
2021/06/28 06:02:42;;;;;;;;;;;;;;;29.75;51.61;98638.94;3492927;27;2066729;-75
2021/06/28 06:04:35;;;;;;;;;;;;;;;29.74;51.83;98647.50;3472739;27;2626283;-76
2021/06/28 06:06:26;;;;;;;;;;;;;;;29.70;51.88;98643.88;3485741;27;2071811;-75
2021/06/28 06:08:23;;;;;;;;;;;;;;;29.72;51.60;98650.63;3480852;27;2343433;-76
2021/06/28 06:10:18;;;;;;;;;;;;;;;29.73;51.54;98646.72;3508881;27;19967;-75
2021/06/28 06:12:11;;;;;;;;;;;;;;;29.78;51.43;98653.91;3490445;27;2067167;-76
2021/06/28 06:14:03;;;;;;;;;;;;;;;29.81;51.76;98647.72;3464748;27;2400964;-76
2021/06/28 06:15:55;;;;;;;;;;;;;;;29.89;51.59;98643.25;3486659;27;2068388;-75
2021/06/28 06:17:48;;;;;;;;;;;;;;;29.97;51.54;98645.84;3458415;27;2380708;-76
2021/06/28 06:19:41;;;;;;;;;;;;;;;30.08;51.18;98654.41;3490739;27;2051387;-75
2021/06/28 06:21:37;;;;;;;;;;;;;;;30.19;51.26;98649.19;3497977;27;2047877;-75
2021/06/28 06:23:28;;;;;;;;;;;;;;;30.27;50.63;98647.47;3497901;27;2081070;-76
2021/06/28 06:25:20;;;;;;;;;;;;;;;30.31;50.78;98648.34;3495524;27;2112508;-76
2021/06/28 06:27:12;;;;;;;;;;;;;;;30.31;51.02;98654.66;3480055;27;2079949;-76
2021/06/28 06:29:04;;;;;;;;;;;;;;;30.28;50.51;98651.81;3480765;27;2141941;-76
2021/06/28 06:30:58;;;;;;;;;;;;;;;30.22;50.58;98652.03;3485915;27;2125020;-76
2021/06/28 06:32:53;;;;;;;;;;;;;;;30.22;50.91;98656.72;3522966;27;19979;-76
2021/06/28 06:34:47;;;;;;;;;;;;;;;30.24;50.68;98659.97;3489426;27;2151692;-76
2021/06/28 06:36:40;;;;;;;;;;;;;;;30.30;50.46;98653.06;3468374;27;2556966;-76
2021/06/28 06:38:33;;;;;;;;;;;;;;;30.44;50.19;98649.91;3491737;27;2074446;-76
2021/06/28 06:40:25;;;;;;;;;;;;;;;30.61;50.10;98655.06;3482426;27;2066711;-76
2021/06/28 06:42:18;;;;;;;;;;;;;;;30.79;49.72;98652.75;3443891;27;3107553;-77
2021/06/28 06:44:10;;;;;;;;;;;;;;;30.97;49.65;98658.72;3494119;27;2069382;-76
2021/06/28 06:46:04;;;;;;;;;;;;;;;31.14;49.35;98648.53;3494680;28;19960;-76
2021/06/28 06:47:57;;;;;;;;;;;;;;;31.29;49.30;98651.25;3481671;27;2377449;-76
2021/06/28 06:49:48;;;;;;;;;;;;;;;31.39;48.54;98649.13;3486956;27;2054987;-76
2021/06/28 06:51:42;;;;;;;;;;;;;;;31.46;48.66;98652.03;3491610;27;2075244;-75
2021/06/28 06:53:33;;;;;;;;;;;;;;;31.57;48.50;98652.25;3487246;27;2088506;-76
2021/06/28 06:55:26;;;;;;;;;;;;;;;31.67;48.25;98646.97;3492502;27;2057269;-77
2021/06/28 06:57:19;;;;;;;;;;;;;;;31.77;48.09;98658.59;3477712;27;2106453;-76
2021/06/28 06:59:12;;;;;;;;;;;;;;;31.87;48.03;98655.28;3489751;27;2135332;-76
2021/06/28 07:01:06;;;;;;;;;;;;;;;32.01;47.73;98652.84;3482677;27;2298157;-73
2021/06/28 07:02:59;;;;;;;;;;;;;;;32.15;47.74;98650.38;3490395;27;2126042;-77
2021/06/28 07:04:54;;;;;;;;;;;;;;;32.31;47.44;98655.00;3540869;27;19930;-75
2021/06/28 07:06:48;;;;;;;;;;;;;;;32.40;47.09;98655.56;3088772;27;13394688;-77
2021/06/28 07:08:41;;;;;;;;;;;;;;;32.45;46.85;98657.19;3416859;27;4192930;-76
2021/06/28 07:10:33;;;;;;;;;;;;;;;32.48;46.85;98657.31;3368132;27;4483500;-77
2021/06/28 07:12:26;;;;;;;;;;;;;;;32.54;46.79;98663.31;3492867;27;2074538;-77
2021/06/28 07:14:18;;;;;;;;;;;;;;;32.60;46.68;98664.59;3463375;27;2450083;-76
2021/06/28 07:16:10;;;;;;;;;;;;;;;32.64;46.35;98659.16;3453792;27;2087212;-77
2021/06/28 07:18:03;;;;;;;;;;;;;;;32.67;46.27;98663.94;3435749;27;3210739;-74
2021/06/28 07:19:56;;;;;;;;;;;;;;;32.71;46.30;98659.28;3456457;27;2380304;-77
2021/06/28 07:21:49;;;;;;;;;;;;;;;32.76;45.91;98662.53;3477215;27;2050791;-76
2021/06/28 07:23:42;;;;;;;;;;;;;;;32.87;45.85;98657.19;3456938;27;2819596;-76
2021/06/28 07:25:36;;;;;;;;;;;;;;;33.01;45.82;98657.44;3431739;27;3419834;-75
2021/06/28 07:27:29;;;;;;;;;;;;;;;33.11;45.67;98660.75;3473406;27;2167219;-76
2021/06/28 07:29:23;;;;;;;;;;;;;;;33.20;45.45;98662.09;3456451;27;2593697;-77
2021/06/28 07:31:17;;;;;;;;;;;;;;;33.31;45.33;98661.47;3407058;27;4196324;-78
2021/06/28 07:33:09;;;;;;;;;;;;;;;33.43;45.27;98652.94;3449314;27;2740856;-75
2021/06/28 07:35:05;;;;;;;;;;;;;;;33.55;45.21;98652.75;3455109;27;2650162;-76
2021/06/28 07:36:57;;;;;;;;;;;;;;;33.69;44.91;98660.47;3450156;27;2764576;-77
2021/06/28 07:38:50;;;;;;;;;;;;;;;33.81;44.80;98662.97;3421579;27;3655553;-76
2021/06/28 07:40:42;;;;;;;;;;;;;;;33.95;44.88;98656.03;3448282;27;2690208;-76
2021/06/28 07:42:36;;;;;;;;;;;;;;;34.02;44.54;98662.44;3431890;27;3524906;-76
2021/06/28 07:44:31;;;;;;;;;;;;;;;34.08;44.14;98662.94;3475165;27;2168464;-76
2021/06/28 07:46:26;;;;;;;;;;;;;;;34.16;44.03;98669.34;3532132;27;19994;-75
2021/06/28 07:48:21;;;;;;;;;;;;;;;34.23;44.23;98669.41;3453222;27;2849180;-76
2021/06/28 07:50:16;;;;;;;;;;;;;;;34.23;44.27;98664.69;3444840;27;2842915;-76
2021/06/28 07:52:14;;;;;;;;;;;;;;;34.26;44.41;98672.25;3521412;27;19924;-76
2021/06/28 07:54:06;;;;;;;;;;;;;;;34.27;43.61;98671.06;3479690;27;2079135;-77
2021/06/28 07:56:14;;;;;;;;;;;;;;;34.28;43.50;98675.44;3474991;27;2073253;-76
2021/06/28 07:58:08;;;;;;;;;;;;;;;34.23;43.75;98675.78;3484417;27;2147011;-75
2021/06/28 08:00:00;;;;;;;;;;;;;;;34.19;44.21;98679.66;3435020;27;3205122;-77
2021/06/28 08:01:52;;;;;;;;;;;;;;;34.18;43.90;98681.63;3468223;27;2046234;-77
2021/06/28 08:03:48;;;;;;;;;;;;;;;34.24;44.43;98684.84;3534206;27;19924;-76
2021/06/28 08:05:43;;;;;;;;;;;;;;;34.31;43.65;98677.44;3425855;27;2874459;-75
2021/06/28 08:07:36;;;;;;;;;;;;;;;34.37;44.01;98668.78;3443822;27;2425747;-78
2021/06/28 08:09:29;;;;;;;;;;;;;;;34.44;43.42;98677.16;3487104;27;2164941;-74
2021/06/28 08:11:24;;;;;;;;;;;;;;;34.45;43.47;98676.78;3422199;27;4042754;-76
2021/06/28 08:13:20;;;;;;;;;;;;;;;34.55;43.79;98677.28;3506307;27;20355;-77
2021/06/28 08:15:15;;;;;;;;;;;;;;;34.61;43.75;98676.56;2996101;27;15889989;-77
2021/06/28 08:17:12;;;;;;;;;;;;;;;34.53;43.65;98669.34;3523786;27;20034;-77
2021/06/28 08:19:06;;;;;;;;;;;;;;;34.44;43.56;98675.19;3478361;27;2133828;-76
2021/06/28 08:20:58;;;;;;;;;;;;;;;34.37;43.82;98671.56;3443875;27;2587832;-77
2021/06/28 08:22:51;;;;;;;;;;;;;;;34.24;44.11;98666.28;3449911;27;2471253;-77
2021/06/28 08:24:47;;;;;;;;;;;;;;;34.11;44.10;98659.41;3478095;27;2139468;-76
2021/06/28 08:26:41;;;;;;;;;;;;;;;34.04;44.31;98662.06;3466108;27;2521508;-76
2021/06/28 08:28:34;;;;;;;;;;;;;;;34.03;44.21;98654.94;3480202;27;2206241;-75
2021/06/28 08:30:55;;;;;;;;;;;;;;;33.99;44.72;98651.34;3463073;27;2270536;-77
2021/06/28 08:32:49;;;;;;;;;;;;;;;33.87;44.72;98642.13;3423593;27;3249227;-75
2021/06/28 08:34:42;;;;;;;;;;;;;;;33.72;44.91;98639.56;3443701;27;2668891;-76
2021/06/28 08:36:39;;;;;;;;;;;;;;;33.61;45.00;98633.88;3519518;27;19959;-75
2021/06/28 08:38:32;;;;;;;;;;;;;;;33.53;45.31;98630.19;3446888;27;2318141;-75
2021/06/28 08:40:24;;;;;;;;;;;;;;;33.45;45.27;98625.75;3441221;27;2080674;-74
2021/06/28 08:42:18;;;;;;;;;;;;;;;33.39;45.70;98622.50;3458505;27;2144107;-75
2021/06/28 08:44:13;;;;;;;;;;;;;;;33.38;45.69;98609.06;3219188;27;9130817;-78
2021/06/28 08:46:07;;;;;;;;;;;;;;;33.51;45.37;98615.97;3470755;27;2155525;-77
2021/06/28 08:47:59;;;;;;;;;;;;;;;33.74;45.13;98599.31;3466378;27;2493724;-75
2021/06/28 08:49:52;;;;;;;;;;;;;;;34.01;44.85;98594.47;3479035;27;2053553;-75
2021/06/28 08:51:46;;;;;;;;;;;;;;;34.21;44.71;98594.34;3476256;27;2050687;-75
2021/06/28 08:53:40;;;;;;;;;;;;;;;34.39;44.81;98591.72;3479818;27;2138675;-75
2021/06/28 08:55:36;;;;;;;;;;;;;;;34.38;44.31;98581.84;3505238;27;20406;-76
2021/06/28 08:57:31;;;;;;;;;;;;;;;34.29;44.70;98584.94;3519540;27;19974;-75
2021/06/28 08:59:27;;;;;;;;;;;;;;;34.12;44.95;98569.72;3469061;27;2094412;-78
2021/06/28 09:01:23;;;;;;;;;;;;;;;34.00;44.82;98572.72;3495812;27;19960;-78
2021/06/28 09:03:19;;;;;;;;;;;;;;;34.00;44.95;98575.50;3458796;27;2501380;-78
2021/06/28 09:05:14;;;;;;;;;;;;;;;34.11;44.95;98573.69;3518323;27;19963;-78
2021/06/28 09:07:21;;;;;;;;;;;;;;;34.29;44.62;98573.88;3494642;27;19968;-76
2021/06/28 09:09:15;;;;;;;;;;;;;;;34.57;44.35;98567.78;3450653;27;2615029;-79
2021/06/28 09:11:16;;;;;;;;;;;;;;;34.90;43.50;98568.84;3380627;27;3910148;-77
2021/06/28 09:13:11;;;;;;;;;;;;;;;35.21;43.21;98561.13;3051610;27;14066024;-79
2021/06/28 09:15:09;;;;;;;;;;;;;;;35.45;43.28;98543.84;3432170;27;2297114;-79
2021/06/28 09:17:02;;;;;;;;;;;;;;;35.66;42.74;98548.72;3444227;27;2160646;-81
2021/06/28 09:19:01;;;;;;;;;;;;;;;35.80;42.60;98554.28;3447661;27;3117715;-80
2021/06/28 09:21:07;;;;;;;;;;;;;;;35.93;42.00;98563.03;3402506;27;3715419;-79
2021/06/28 09:23:03;;;;;;;;;;;;;;;35.98;41.48;98548.78;3376838;27;5071164;-78
2021/06/28 09:24:57;;;;;;;;;;;;;;;36.05;41.84;98553.56;3483106;27;2064440;-77
2021/06/28 09:26:50;;;;;;;;;;;;;;;36.15;42.23;98546.47;3454100;27;2094188;-77